sensor_id;sensor_type;location;lat;lon;timestamp;P1;durP1;ratioP1;P2;durP2;ratioP2
37051;SDS011;22964;52.272;13.356;2022-09-20T00:01:53;1.55;;;0.80;;
37051;SDS011;22964;52.272;13.356;2022-09-20T00:04:19;1.45;;;0.77;;
37051;SDS011;22964;52.272;13.356;2022-09-20T00:06:45;2.25;;;0.75;;
37051;SDS011;22964;52.272;13.356;2022-09-20T00:09:10;1.63;;;0.80;;
37051;SDS011;22964;52.272;13.356;2022-09-20T00:11:36;1.23;;;0.77;;
37051;SDS011;22964;52.272;13.356;2022-09-20T00:14:03;1.38;;;0.82;;
37051;SDS011;22964;52.272;13.356;2022-09-20T00:16:33;2.13;;;0.90;;
37051;SDS011;22964;52.272;13.356;2022-09-20T00:19:03;1.95;;;0.80;;
37051;SDS011;22964;52.272;13.356;2022-09-20T00:21:30;1.83;;;0.90;;
37051;SDS011;22964;52.272;13.356;2022-09-20T00:23:58;2.13;;;0.90;;
37051;SDS011;22964;52.272;13.356;2022-09-20T00:26:24;3.13;;;1.00;;
37051;SDS011;22964;52.272;13.356;2022-09-20T00:28:51;2.03;;;0.93;;
37051;SDS011;22964;52.272;13.356;2022-09-20T00:31:17;1.48;;;0.77;;
37051;SDS011;22964;52.272;13.356;2022-09-20T00:33:43;3.80;;;0.82;;
37051;SDS011;22964;52.272;13.356;2022-09-20T00:36:28;1.55;;;0.90;;
37051;SDS011;22964;52.272;13.356;2022-09-20T00:38:54;2.60;;;1.00;;
37051;SDS011;22964;52.272;13.356;2022-09-20T00:41:21;1.88;;;0.75;;
37051;SDS011;22964;52.272;13.356;2022-09-20T00:43:47;2.20;;;0.90;;
37051;SDS011;22964;52.272;13.356;2022-09-20T00:46:23;1.20;;;0.88;;
37051;SDS011;22964;52.272;13.356;2022-09-20T00:48:58;1.23;;;0.73;;
37051;SDS011;22964;52.272;13.356;2022-09-20T00:51:30;1.40;;;0.93;;
37051;SDS011;22964;52.272;13.356;2022-09-20T00:53:59;2.00;;;0.90;;
37051;SDS011;22964;52.272;13.356;2022-09-20T00:56:28;1.42;;;0.90;;
37051;SDS011;22964;52.272;13.356;2022-09-20T00:59:03;1.90;;;0.80;;
37051;SDS011;22964;52.272;13.356;2022-09-20T01:01:45;2.17;;;0.90;;
37051;SDS011;22964;52.272;13.356;2022-09-20T01:04:15;1.90;;;1.00;;
37051;SDS011;22964;52.272;13.356;2022-09-20T01:06:45;1.40;;;0.80;;
37051;SDS011;22964;52.272;13.356;2022-09-20T01:09:13;2.08;;;0.82;;
37051;SDS011;22964;52.272;13.356;2022-09-20T01:11:39;1.92;;;1.08;;
37051;SDS011;22964;52.272;13.356;2022-09-20T01:14:05;1.30;;;0.90;;
37051;SDS011;22964;52.272;13.356;2022-09-20T01:16:32;1.92;;;0.90;;
37051;SDS011;22964;52.272;13.356;2022-09-20T01:18:59;3.22;;;1.05;;
37051;SDS011;22964;52.272;13.356;2022-09-20T01:21:31;2.13;;;0.95;;
37051;SDS011;22964;52.272;13.356;2022-09-20T01:24:18;1.67;;;0.93;;
37051;SDS011;22964;52.272;13.356;2022-09-20T01:27:14;1.60;;;0.80;;
37051;SDS011;22964;52.272;13.356;2022-09-20T01:30:01;2.58;;;0.85;;
37051;SDS011;22964;52.272;13.356;2022-09-20T01:32:41;1.45;;;0.73;;
37051;SDS011;22964;52.272;13.356;2022-09-20T01:35:21;1.30;;;0.77;;
37051;SDS011;22964;52.272;13.356;2022-09-20T01:38:03;2.10;;;1.00;;
37051;SDS011;22964;52.272;13.356;2022-09-20T01:43:50;3.22;;;0.88;;
37051;SDS011;22964;52.272;13.356;2022-09-20T01:46:53;1.77;;;1.00;;
37051;SDS011;22964;52.272;13.356;2022-09-20T01:49:28;1.40;;;0.70;;
37051;SDS011;22964;52.272;13.356;2022-09-20T01:52:20;1.48;;;0.73;;
37051;SDS011;22964;52.272;13.356;2022-09-20T02:06:19;2.70;;;0.80;;
37051;SDS011;22964;52.272;13.356;2022-09-20T02:09:19;2.33;;;0.90;;
37051;SDS011;22964;52.272;13.356;2022-09-20T02:17:52;1.52;;;0.80;;
37051;SDS011;22964;52.272;13.356;2022-09-20T02:20:37;3.15;;;0.80;;
37051;SDS011;22964;52.272;13.356;2022-09-20T02:29:35;2.55;;;0.90;;
37051;SDS011;22964;52.272;13.356;2022-09-20T02:35:07;4.07;;;0.90;;
37051;SDS011;22964;52.272;13.356;2022-09-20T02:40:59;3.45;;;0.93;;
37051;SDS011;22964;52.272;13.356;2022-09-20T02:55:06;3.00;;;0.90;;
37051;SDS011;22964;52.272;13.356;2022-09-20T03:00:48;2.30;;;0.85;;
37051;SDS011;22964;52.272;13.356;2022-09-20T03:03:44;1.55;;;0.80;;
37051;SDS011;22964;52.272;13.356;2022-09-20T03:15:09;2.55;;;1.00;;
37051;SDS011;22964;52.272;13.356;2022-09-20T03:29:21;2.42;;;1.00;;
37051;SDS011;22964;52.272;13.356;2022-09-20T03:32:27;2.28;;;1.05;;
37051;SDS011;22964;52.272;13.356;2022-09-20T03:35:30;3.58;;;0.95;;
37051;SDS011;22964;52.272;13.356;2022-09-20T03:38:23;3.42;;;1.17;;
37051;SDS011;22964;52.272;13.356;2022-09-20T03:46:24;2.25;;;1.02;;
37051;SDS011;22964;52.272;13.356;2022-09-20T03:54:41;2.42;;;1.15;;
37051;SDS011;22964;52.272;13.356;2022-09-20T03:57:49;3.72;;;1.30;;
37051;SDS011;22964;52.272;13.356;2022-09-20T04:22:13;3.90;;;1.15;;
37051;SDS011;22964;52.272;13.356;2022-09-20T04:27:14;3.97;;;1.58;;
37051;SDS011;22964;52.272;13.356;2022-09-20T04:30:15;3.20;;;1.25;;
37051;SDS011;22964;52.272;13.356;2022-09-20T04:38:16;3.17;;;1.40;;
37051;SDS011;22964;52.272;13.356;2022-09-20T04:46:02;3.28;;;1.30;;
37051;SDS011;22964;52.272;13.356;2022-09-20T04:54:20;4.80;;;1.30;;
37051;SDS011;22964;52.272;13.356;2022-09-20T04:57:08;4.28;;;1.30;;
37051;SDS011;22964;52.272;13.356;2022-09-20T05:05:34;3.55;;;1.30;;
37051;SDS011;22964;52.272;13.356;2022-09-20T05:11:01;3.78;;;1.20;;
37051;SDS011;22964;52.272;13.356;2022-09-20T05:16:43;3.40;;;1.30;;
37051;SDS011;22964;52.272;13.356;2022-09-20T05:22:24;3.60;;;1.30;;
37051;SDS011;22964;52.272;13.356;2022-09-20T05:25:28;3.63;;;1.35;;
37051;SDS011;22964;52.272;13.356;2022-09-20T05:28:24;2.78;;;1.30;;
37051;SDS011;22964;52.272;13.356;2022-09-20T05:31:05;3.70;;;1.35;;
37051;SDS011;22964;52.272;13.356;2022-09-20T05:33:58;4.13;;;1.35;;
37051;SDS011;22964;52.272;13.356;2022-09-20T05:39:40;2.78;;;1.30;;
37051;SDS011;22964;52.272;13.356;2022-09-20T05:42:15;3.30;;;1.42;;
37051;SDS011;22964;52.272;13.356;2022-09-20T05:45:03;3.85;;;1.30;;
37051;SDS011;22964;52.272;13.356;2022-09-20T05:47:36;3.35;;;1.50;;
37051;SDS011;22964;52.272;13.356;2022-09-20T05:53:38;3.13;;;1.50;;
37051;SDS011;22964;52.272;13.356;2022-09-20T05:56:33;3.60;;;1.40;;
37051;SDS011;22964;52.272;13.356;2022-09-20T06:01:56;3.00;;;1.38;;
37051;SDS011;22964;52.272;13.356;2022-09-20T06:04:29;3.97;;;1.55;;
37051;SDS011;22964;52.272;13.356;2022-09-20T06:15:31;4.25;;;1.50;;
37051;SDS011;22964;52.272;13.356;2022-09-20T06:23:21;2.80;;;1.45;;
37051;SDS011;22964;52.272;13.356;2022-09-20T06:25:55;3.10;;;1.30;;
37051;SDS011;22964;52.272;13.356;2022-09-20T06:28:29;4.45;;;1.20;;
37051;SDS011;22964;52.272;13.356;2022-09-20T06:31:06;3.40;;;1.52;;
37051;SDS011;22964;52.272;13.356;2022-09-20T06:33:37;4.75;;;1.40;;
37051;SDS011;22964;52.272;13.356;2022-09-20T06:36:10;5.50;;;1.50;;
37051;SDS011;22964;52.272;13.356;2022-09-20T06:42:12;3.55;;;1.60;;
37051;SDS011;22964;52.272;13.356;2022-09-20T06:44:39;2.92;;;1.60;;
37051;SDS011;22964;52.272;13.356;2022-09-20T06:47:08;3.25;;;1.33;;
37051;SDS011;22964;52.272;13.356;2022-09-20T06:49:35;4.03;;;1.90;;
37051;SDS011;22964;52.272;13.356;2022-09-20T06:52:03;3.95;;;1.50;;
37051;SDS011;22964;52.272;13.356;2022-09-20T06:54:39;2.83;;;1.40;;
37051;SDS011;22964;52.272;13.356;2022-09-20T06:57:08;4.50;;;1.50;;
37051;SDS011;22964;52.272;13.356;2022-09-20T06:59:35;4.80;;;1.70;;
37051;SDS011;22964;52.272;13.356;2022-09-20T07:02:01;3.30;;;1.55;;
37051;SDS011;22964;52.272;13.356;2022-09-20T07:04:26;3.38;;;1.70;;
37051;SDS011;22964;52.272;13.356;2022-09-20T07:06:58;4.28;;;1.90;;
37051;SDS011;22964;52.272;13.356;2022-09-20T07:09:28;3.80;;;1.67;;
37051;SDS011;22964;52.272;13.356;2022-09-20T07:11:54;2.85;;;1.70;;
37051;SDS011;22964;52.272;13.356;2022-09-20T07:14:21;5.78;;;2.20;;
37051;SDS011;22964;52.272;13.356;2022-09-20T07:16:47;6.97;;;2.03;;
37051;SDS011;22964;52.272;13.356;2022-09-20T07:19:13;3.55;;;1.85;;
37051;SDS011;22964;52.272;13.356;2022-09-20T07:21:40;4.70;;;1.90;;
37051;SDS011;22964;52.272;13.356;2022-09-20T07:24:06;4.15;;;1.80;;
37051;SDS011;22964;52.272;13.356;2022-09-20T07:26:31;3.33;;;1.85;;
37051;SDS011;22964;52.272;13.356;2022-09-20T07:28:58;4.18;;;1.80;;
37051;SDS011;22964;52.272;13.356;2022-09-20T07:31:24;4.22;;;2.00;;
37051;SDS011;22964;52.272;13.356;2022-09-20T07:33:51;3.67;;;1.70;;
37051;SDS011;22964;52.272;13.356;2022-09-20T07:36:17;3.65;;;1.80;;
37051;SDS011;22964;52.272;13.356;2022-09-20T07:38:46;6.18;;;1.80;;
37051;SDS011;22964;52.272;13.356;2022-09-20T07:41:14;3.15;;;1.80;;
37051;SDS011;22964;52.272;13.356;2022-09-20T07:43:43;3.75;;;1.80;;
37051;SDS011;22964;52.272;13.356;2022-09-20T07:46:09;2.70;;;1.80;;
37051;SDS011;22964;52.272;13.356;2022-09-20T07:48:37;5.47;;;2.20;;
37051;SDS011;22964;52.272;13.356;2022-09-20T07:51:05;6.05;;;2.17;;
37051;SDS011;22964;52.272;13.356;2022-09-20T07:53:33;4.20;;;1.92;;
37051;SDS011;22964;52.272;13.356;2022-09-20T07:56:09;5.57;;;2.33;;
37051;SDS011;22964;52.272;13.356;2022-09-20T07:58:37;4.78;;;2.00;;
37051;SDS011;22964;52.272;13.356;2022-09-20T08:01:04;4.43;;;2.17;;
37051;SDS011;22964;52.272;13.356;2022-09-20T08:03:32;4.90;;;2.25;;
37051;SDS011;22964;52.272;13.356;2022-09-20T08:06:03;8.00;;;2.35;;
37051;SDS011;22964;52.272;13.356;2022-09-20T08:08:33;4.70;;;1.98;;
37051;SDS011;22964;52.272;13.356;2022-09-20T08:11:04;4.18;;;2.10;;
37051;SDS011;22964;52.272;13.356;2022-09-20T08:13:39;5.60;;;2.25;;
37051;SDS011;22964;52.272;13.356;2022-09-20T08:16:07;5.40;;;1.90;;
37051;SDS011;22964;52.272;13.356;2022-09-20T08:18:34;4.57;;;2.00;;
37051;SDS011;22964;52.272;13.356;2022-09-20T08:21:02;3.75;;;1.98;;
37051;SDS011;22964;52.272;13.356;2022-09-20T08:23:32;3.85;;;1.90;;
37051;SDS011;22964;52.272;13.356;2022-09-20T08:26:01;5.45;;;1.83;;
37051;SDS011;22964;52.272;13.356;2022-09-20T08:28:27;6.55;;;1.95;;
37051;SDS011;22964;52.272;13.356;2022-09-20T08:31:03;4.60;;;2.00;;
37051;SDS011;22964;52.272;13.356;2022-09-20T08:33:33;5.25;;;2.30;;
37051;SDS011;22964;52.272;13.356;2022-09-20T08:36:06;5.05;;;2.10;;
37051;SDS011;22964;52.272;13.356;2022-09-20T08:38:34;3.07;;;1.80;;
37051;SDS011;22964;52.272;13.356;2022-09-20T08:41:09;5.72;;;2.63;;
37051;SDS011;22964;52.272;13.356;2022-09-20T08:43:44;5.30;;;2.20;;
37051;SDS011;22964;52.272;13.356;2022-09-20T08:46:31;4.55;;;2.00;;
37051;SDS011;22964;52.272;13.356;2022-09-20T08:48:59;3.03;;;1.80;;
37051;SDS011;22964;52.272;13.356;2022-09-20T08:51:30;6.13;;;2.60;;
37051;SDS011;22964;52.272;13.356;2022-09-20T08:53:58;5.63;;;2.65;;
37051;SDS011;22964;52.272;13.356;2022-09-20T08:56:25;5.35;;;2.65;;
37051;SDS011;22964;52.272;13.356;2022-09-20T08:58:56;5.65;;;2.35;;
37051;SDS011;22964;52.272;13.356;2022-09-20T09:01:24;5.35;;;2.20;;
37051;SDS011;22964;52.272;13.356;2022-09-20T09:06:31;5.03;;;2.00;;
37051;SDS011;22964;52.272;13.356;2022-09-20T09:08:58;4.47;;;2.20;;
37051;SDS011;22964;52.272;13.356;2022-09-20T09:11:23;3.85;;;1.77;;
37051;SDS011;22964;52.272;13.356;2022-09-20T09:14:11;5.35;;;2.13;;
37051;SDS011;22964;52.272;13.356;2022-09-20T09:17:09;7.05;;;2.30;;
37051;SDS011;22964;52.272;13.356;2022-09-20T09:19:46;5.07;;;2.35;;
37051;SDS011;22964;52.272;13.356;2022-09-20T09:22:17;6.38;;;2.30;;
37051;SDS011;22964;52.272;13.356;2022-09-20T09:27:32;4.53;;;1.90;;
37051;SDS011;22964;52.272;13.356;2022-09-20T09:29:59;4.45;;;2.03;;
37051;SDS011;22964;52.272;13.356;2022-09-20T09:32:30;3.78;;;2.10;;
37051;SDS011;22964;52.272;13.356;2022-09-20T09:35:15;5.25;;;2.33;;
37051;SDS011;22964;52.272;13.356;2022-09-20T09:37:56;5.22;;;2.10;;
37051;SDS011;22964;52.272;13.356;2022-09-20T09:40:23;4.22;;;2.13;;
37051;SDS011;22964;52.272;13.356;2022-09-20T09:42:51;5.25;;;2.08;;
37051;SDS011;22964;52.272;13.356;2022-09-20T09:45:24;4.13;;;1.98;;
37051;SDS011;22964;52.272;13.356;2022-09-20T09:48:00;6.60;;;2.00;;
37051;SDS011;22964;52.272;13.356;2022-09-20T09:50:30;5.68;;;2.00;;
37051;SDS011;22964;52.272;13.356;2022-09-20T09:53:18;5.18;;;1.80;;
37051;SDS011;22964;52.272;13.356;2022-09-20T09:55:56;5.05;;;2.20;;
37051;SDS011;22964;52.272;13.356;2022-09-20T10:04:36;6.22;;;2.10;;
37051;SDS011;22964;52.272;13.356;2022-09-20T10:07:12;3.80;;;1.83;;
37051;SDS011;22964;52.272;13.356;2022-09-20T10:12:37;4.03;;;1.65;;
37051;SDS011;22964;52.272;13.356;2022-09-20T10:15:14;2.45;;;1.50;;
37051;SDS011;22964;52.272;13.356;2022-09-20T10:23:39;2.42;;;1.52;;
37051;SDS011;22964;52.272;13.356;2022-09-20T10:45:54;2.70;;;1.33;;
37051;SDS011;22964;52.272;13.356;2022-09-20T10:48:40;2.42;;;1.40;;
37051;SDS011;22964;52.272;13.356;2022-09-20T10:53:59;3.03;;;1.50;;
37051;SDS011;22964;52.272;13.356;2022-09-20T10:56:39;2.55;;;1.50;;
37051;SDS011;22964;52.272;13.356;2022-09-20T11:05:23;2.10;;;1.30;;
37051;SDS011;22964;52.272;13.356;2022-09-20T11:08:27;3.90;;;1.63;;
37051;SDS011;22964;52.272;13.356;2022-09-20T11:10:58;4.37;;;1.80;;
37051;SDS011;22964;52.272;13.356;2022-09-20T11:13:37;2.95;;;1.50;;
37051;SDS011;22964;52.272;13.356;2022-09-20T11:16:22;4.05;;;1.83;;
37051;SDS011;22964;52.272;13.356;2022-09-20T11:24:48;4.07;;;1.90;;
37051;SDS011;22964;52.272;13.356;2022-09-20T11:37:38;4.60;;;1.73;;
37051;SDS011;22964;52.272;13.356;2022-09-20T11:42:49;5.57;;;2.03;;
37051;SDS011;22964;52.272;13.356;2022-09-20T11:45:16;4.60;;;1.92;;
37051;SDS011;22964;52.272;13.356;2022-09-20T11:47:45;3.22;;;1.80;;
37051;SDS011;22964;52.272;13.356;2022-09-20T11:56:16;3.17;;;1.63;;
37051;SDS011;22964;52.272;13.356;2022-09-20T11:58:45;4.97;;;1.67;;
37051;SDS011;22964;52.272;13.356;2022-09-20T12:01:13;3.45;;;1.60;;
37051;SDS011;22964;52.272;13.356;2022-09-20T12:03:42;2.33;;;1.40;;
37051;SDS011;22964;52.272;13.356;2022-09-20T12:06:36;10.93;;;1.42;;
37051;SDS011;22964;52.272;13.356;2022-09-20T12:09:06;2.92;;;1.30;;
37051;SDS011;22964;52.272;13.356;2022-09-20T12:11:52;2.92;;;1.35;;
37051;SDS011;22964;52.272;13.356;2022-09-20T12:14:22;3.20;;;1.42;;
37051;SDS011;22964;52.272;13.356;2022-09-20T12:16:53;3.25;;;1.90;;
37051;SDS011;22964;52.272;13.356;2022-09-20T12:24:28;2.28;;;1.40;;
37051;SDS011;22964;52.272;13.356;2022-09-20T12:27:54;2.70;;;1.40;;
37051;SDS011;22964;52.272;13.356;2022-09-20T12:30:15;2.25;;;1.30;;
37051;SDS011;22964;52.272;13.356;2022-09-20T12:32:46;2.72;;;1.40;;
37051;SDS011;22964;52.272;13.356;2022-09-20T12:35:50;2.47;;;1.40;;
37051;SDS011;22964;52.272;13.356;2022-09-20T12:43:30;2.72;;;1.45;;
37051;SDS011;22964;52.272;13.356;2022-09-20T12:45:58;1.98;;;1.10;;
37051;SDS011;22964;52.272;13.356;2022-09-20T12:48:24;2.63;;;1.17;;
37051;SDS011;22964;52.272;13.356;2022-09-20T12:54:02;1.50;;;1.10;;
37051;SDS011;22964;52.272;13.356;2022-09-20T12:56:32;2.20;;;1.20;;
37051;SDS011;22964;52.272;13.356;2022-09-20T12:59:00;2.45;;;1.20;;
37051;SDS011;22964;52.272;13.356;2022-09-20T13:01:31;2.60;;;1.30;;
37051;SDS011;22964;52.272;13.356;2022-09-20T13:10:40;2.38;;;1.52;;
37051;SDS011;22964;52.272;13.356;2022-09-20T13:13:10;3.15;;;1.20;;
37051;SDS011;22964;52.272;13.356;2022-09-20T13:15:48;2.47;;;1.23;;
37051;SDS011;22964;52.272;13.356;2022-09-20T13:18:16;1.83;;;1.30;;
37051;SDS011;22964;52.272;13.356;2022-09-20T13:20:43;2.60;;;1.25;;
37051;SDS011;22964;52.272;13.356;2022-09-20T13:23:17;1.98;;;1.20;;
37051;SDS011;22964;52.272;13.356;2022-09-20T13:25:47;2.53;;;1.30;;
37051;SDS011;22964;52.272;13.356;2022-09-20T13:30:45;1.80;;;1.13;;
37051;SDS011;22964;52.272;13.356;2022-09-20T13:33:21;2.85;;;1.85;;
37051;SDS011;22964;52.272;13.356;2022-09-20T13:35:51;2.00;;;1.35;;
37051;SDS011;22964;52.272;13.356;2022-09-20T13:38:22;12.73;;;7.03;;
37051;SDS011;22964;52.272;13.356;2022-09-20T13:40:51;3.25;;;2.30;;
37051;SDS011;22964;52.272;13.356;2022-09-20T13:43:34;2.38;;;1.20;;
37051;SDS011;22964;52.272;13.356;2022-09-20T13:48:47;1.60;;;1.38;;
37051;SDS011;22964;52.272;13.356;2022-09-20T13:51:26;2.10;;;1.00;;
37051;SDS011;22964;52.272;13.356;2022-09-20T13:53:52;1.05;;;0.70;;
37051;SDS011;22964;52.272;13.356;2022-09-20T13:58:52;1.70;;;0.30;;
37051;SDS011;22964;52.272;13.356;2022-09-20T14:01:29;1.67;;;0.40;;
37051;SDS011;22964;52.272;13.356;2022-09-20T14:04:00;0.60;;;0.40;;
37051;SDS011;22964;52.272;13.356;2022-09-20T14:06:30;0.73;;;0.38;;
37051;SDS011;22964;52.272;13.356;2022-09-20T14:08:57;0.77;;;0.40;;
37051;SDS011;22964;52.272;13.356;2022-09-20T14:11:26;0.35;;;0.30;;
37051;SDS011;22964;52.272;13.356;2022-09-20T14:13:59;0.32;;;0.32;;
37051;SDS011;22964;52.272;13.356;2022-09-20T14:16:33;0.45;;;0.30;;
37051;SDS011;22964;52.272;13.356;2022-09-20T14:19:03;1.65;;;0.30;;
37051;SDS011;22964;52.272;13.356;2022-09-20T14:21:32;0.95;;;0.20;;
37051;SDS011;22964;52.272;13.356;2022-09-20T14:24:04;0.95;;;0.28;;
37051;SDS011;22964;52.272;13.356;2022-09-20T14:26:33;0.30;;;0.30;;
37051;SDS011;22964;52.272;13.356;2022-09-20T14:34:44;0.68;;;0.30;;
37051;SDS011;22964;52.272;13.356;2022-09-20T14:39:53;1.05;;;0.35;;
37051;SDS011;22964;52.272;13.356;2022-09-20T14:42:29;0.60;;;0.30;;
37051;SDS011;22964;52.272;13.356;2022-09-20T14:45:00;0.32;;;0.30;;
37051;SDS011;22964;52.272;13.356;2022-09-20T14:47:36;1.63;;;0.50;;
37051;SDS011;22964;52.272;13.356;2022-09-20T14:50:17;0.80;;;0.50;;
37051;SDS011;22964;52.272;13.356;2022-09-20T14:55:35;1.35;;;0.90;;
37051;SDS011;22964;52.272;13.356;2022-09-20T14:58:06;2.30;;;0.98;;
37051;SDS011;22964;52.272;13.356;2022-09-20T15:03:42;0.70;;;0.60;;
37051;SDS011;22964;52.272;13.356;2022-09-20T15:06:11;1.48;;;0.50;;
37051;SDS011;22964;52.272;13.356;2022-09-20T15:08:37;0.73;;;0.65;;
37051;SDS011;22964;52.272;13.356;2022-09-20T15:11:04;2.55;;;1.00;;
37051;SDS011;22964;52.272;13.356;2022-09-20T15:13:30;1.80;;;1.05;;
37051;SDS011;22964;52.272;13.356;2022-09-20T15:15:56;5.72;;;2.72;;
37051;SDS011;22964;52.272;13.356;2022-09-20T15:18:30;4.00;;;2.05;;
37051;SDS011;22964;52.272;13.356;2022-09-20T15:21:01;2.22;;;1.27;;
37051;SDS011;22964;52.272;13.356;2022-09-20T15:23:26;1.77;;;0.90;;
37051;SDS011;22964;52.272;13.356;2022-09-20T15:25:53;1.63;;;0.75;;
37051;SDS011;22964;52.272;13.356;2022-09-20T15:28:19;0.75;;;0.52;;
37051;SDS011;22964;52.272;13.356;2022-09-20T15:30:46;0.70;;;0.50;;
37051;SDS011;22964;52.272;13.356;2022-09-20T15:33:14;4.03;;;0.70;;
37051;SDS011;22964;52.272;13.356;2022-09-20T15:35:41;1.48;;;0.68;;
37051;SDS011;22964;52.272;13.356;2022-09-20T15:38:08;0.90;;;0.68;;
37051;SDS011;22964;52.272;13.356;2022-09-20T15:40:42;2.72;;;0.70;;
37051;SDS011;22964;52.272;13.356;2022-09-20T15:43:14;2.10;;;0.90;;
37051;SDS011;22964;52.272;13.356;2022-09-20T15:45:49;5.28;;;2.53;;
37051;SDS011;22964;52.272;13.356;2022-09-20T15:48:23;4.43;;;2.50;;
37051;SDS011;22964;52.272;13.356;2022-09-20T15:53:27;4.03;;;1.90;;
37051;SDS011;22964;52.272;13.356;2022-09-20T15:55:57;2.58;;;1.80;;
37051;SDS011;22964;52.272;13.356;2022-09-20T15:58:27;1.77;;;1.10;;
37051;SDS011;22964;52.272;13.356;2022-09-20T16:01:00;1.40;;;0.85;;
37051;SDS011;22964;52.272;13.356;2022-09-20T16:03:30;1.50;;;0.93;;
37051;SDS011;22964;52.272;13.356;2022-09-20T16:06:00;1.00;;;0.90;;
37051;SDS011;22964;52.272;13.356;2022-09-20T16:08:35;1.55;;;0.90;;
37051;SDS011;22964;52.272;13.356;2022-09-20T16:11:02;1.85;;;1.00;;
37051;SDS011;22964;52.272;13.356;2022-09-20T16:13:29;2.15;;;1.20;;
37051;SDS011;22964;52.272;13.356;2022-09-20T16:15:55;2.90;;;1.40;;
37051;SDS011;22964;52.272;13.356;2022-09-20T16:18:22;2.08;;;1.20;;
37051;SDS011;22964;52.272;13.356;2022-09-20T16:21:07;1.35;;;1.02;;
37051;SDS011;22964;52.272;13.356;2022-09-20T16:23:36;2.50;;;1.20;;
37051;SDS011;22964;52.272;13.356;2022-09-20T16:26:03;2.97;;;1.00;;
37051;SDS011;22964;52.272;13.356;2022-09-20T16:28:30;4.38;;;1.65;;
37051;SDS011;22964;52.272;13.356;2022-09-20T16:30:59;18.88;;;5.78;;
37051;SDS011;22964;52.272;13.356;2022-09-20T16:33:25;24.33;;;7.93;;
37051;SDS011;22964;52.272;13.356;2022-09-20T16:35:50;12.35;;;4.40;;
37051;SDS011;22964;52.272;13.356;2022-09-20T16:38:16;11.27;;;3.97;;
37051;SDS011;22964;52.272;13.356;2022-09-20T16:40:43;8.20;;;3.30;;
37051;SDS011;22964;52.272;13.356;2022-09-20T16:43:12;7.13;;;3.22;;
37051;SDS011;22964;52.272;13.356;2022-09-20T16:45:56;7.38;;;3.90;;
37051;SDS011;22964;52.272;13.356;2022-09-20T16:48:25;3.60;;;2.10;;
37051;SDS011;22964;52.272;13.356;2022-09-20T16:50:55;2.30;;;1.40;;
37051;SDS011;22964;52.272;13.356;2022-09-20T16:53:26;2.28;;;1.30;;
37051;SDS011;22964;52.272;13.356;2022-09-20T16:55:52;4.00;;;0.90;;
37051;SDS011;22964;52.272;13.356;2022-09-20T16:58:27;2.78;;;0.90;;
37051;SDS011;22964;52.272;13.356;2022-09-20T17:01:03;1.65;;;0.80;;
37051;SDS011;22964;52.272;13.356;2022-09-20T17:03:29;1.23;;;0.80;;
37051;SDS011;22964;52.272;13.356;2022-09-20T17:06:04;2.42;;;0.93;;
37051;SDS011;22964;52.272;13.356;2022-09-20T17:08:31;1.50;;;0.77;;
37051;SDS011;22964;52.272;13.356;2022-09-20T17:11:11;1.83;;;0.70;;
37051;SDS011;22964;52.272;13.356;2022-09-20T17:13:39;2.17;;;1.00;;
37051;SDS011;22964;52.272;13.356;2022-09-20T17:16:08;1.77;;;0.75;;
37051;SDS011;22964;52.272;13.356;2022-09-20T17:18:36;1.10;;;0.70;;
37051;SDS011;22964;52.272;13.356;2022-09-20T17:21:09;3.47;;;0.80;;
37051;SDS011;22964;52.272;13.356;2022-09-20T17:23:40;1.05;;;0.70;;
37051;SDS011;22964;52.272;13.356;2022-09-20T17:28:39;1.40;;;1.00;;
37051;SDS011;22964;52.272;13.356;2022-09-20T17:31:06;29.67;;;1.83;;
37051;SDS011;22964;52.272;13.356;2022-09-20T17:33:34;1.73;;;0.80;;
37051;SDS011;22964;52.272;13.356;2022-09-20T17:36:00;1.17;;;0.90;;
37051;SDS011;22964;52.272;13.356;2022-09-20T17:38:28;1.67;;;0.93;;
37051;SDS011;22964;52.272;13.356;2022-09-20T17:40:59;1.83;;;1.10;;
37051;SDS011;22964;52.272;13.356;2022-09-20T17:43:26;3.20;;;1.88;;
37051;SDS011;22964;52.272;13.356;2022-09-20T17:45:54;6.72;;;2.78;;
37051;SDS011;22964;52.272;13.356;2022-09-20T17:48:21;5.72;;;4.93;;
37051;SDS011;22964;52.272;13.356;2022-09-20T17:50:56;5.43;;;4.53;;
37051;SDS011;22964;52.272;13.356;2022-09-20T17:53:21;4.18;;;3.45;;
37051;SDS011;22964;52.272;13.356;2022-09-20T17:55:54;3.65;;;2.50;;
37051;SDS011;22964;52.272;13.356;2022-09-20T17:58:20;4.03;;;2.78;;
37051;SDS011;22964;52.272;13.356;2022-09-20T18:00:46;3.88;;;2.67;;
37051;SDS011;22964;52.272;13.356;2022-09-20T18:03:13;4.05;;;2.38;;
37051;SDS011;22964;52.272;13.356;2022-09-20T18:05:39;3.92;;;2.30;;
37051;SDS011;22964;52.272;13.356;2022-09-20T18:08:04;3.47;;;2.53;;
37051;SDS011;22964;52.272;13.356;2022-09-20T18:10:30;4.43;;;2.50;;
37051;SDS011;22964;52.272;13.356;2022-09-20T18:12:56;3.25;;;1.90;;
37051;SDS011;22964;52.272;13.356;2022-09-20T18:15:22;2.70;;;1.80;;
37051;SDS011;22964;52.272;13.356;2022-09-20T18:17:48;2.90;;;1.50;;
37051;SDS011;22964;52.272;13.356;2022-09-20T18:20:14;2.25;;;1.60;;
37051;SDS011;22964;52.272;13.356;2022-09-20T18:22:39;3.03;;;1.48;;
37051;SDS011;22964;52.272;13.356;2022-09-20T18:25:05;1.70;;;1.30;;
37051;SDS011;22964;52.272;13.356;2022-09-20T18:27:31;3.88;;;2.00;;
37051;SDS011;22964;52.272;13.356;2022-09-20T18:29:58;3.05;;;2.40;;
37051;SDS011;22964;52.272;13.356;2022-09-20T18:32:24;4.28;;;2.53;;
37051;SDS011;22964;52.272;13.356;2022-09-20T18:34:54;3.72;;;1.90;;
37051;SDS011;22964;52.272;13.356;2022-09-20T18:37:20;2.72;;;1.90;;
37051;SDS011;22964;52.272;13.356;2022-09-20T18:39:45;2.33;;;1.70;;
37051;SDS011;22964;52.272;13.356;2022-09-20T18:42:11;3.63;;;1.77;;
37051;SDS011;22964;52.272;13.356;2022-09-20T18:44:37;3.53;;;1.55;;
37051;SDS011;22964;52.272;13.356;2022-09-20T18:47:04;2.90;;;1.30;;
37051;SDS011;22964;52.272;13.356;2022-09-20T18:49:30;3.35;;;1.30;;
37051;SDS011;22964;52.272;13.356;2022-09-20T18:51:56;3.33;;;1.20;;
37051;SDS011;22964;52.272;13.356;2022-09-20T18:54:22;2.17;;;1.20;;
37051;SDS011;22964;52.272;13.356;2022-09-20T18:56:48;1.80;;;1.10;;
37051;SDS011;22964;52.272;13.356;2022-09-20T18:59:15;2.13;;;1.30;;
37051;SDS011;22964;52.272;13.356;2022-09-20T19:12:34;1.25;;;0.98;;
37051;SDS011;22964;52.272;13.356;2022-09-20T19:20:33;1.83;;;1.10;;
37051;SDS011;22964;52.272;13.356;2022-09-20T19:26:02;1.30;;;0.90;;
37051;SDS011;22964;52.272;13.356;2022-09-20T19:28:33;1.92;;;1.20;;
37051;SDS011;22964;52.272;13.356;2022-09-20T19:30:58;4.63;;;1.83;;
37051;SDS011;22964;52.272;13.356;2022-09-20T19:33:24;1.88;;;1.13;;
37051;SDS011;22964;52.272;13.356;2022-09-20T19:35:52;1.33;;;1.00;;
37051;SDS011;22964;52.272;13.356;2022-09-20T19:41:20;1.40;;;1.00;;
37051;SDS011;22964;52.272;13.356;2022-09-20T19:43:54;1.80;;;1.10;;
37051;SDS011;22964;52.272;13.356;2022-09-20T19:52:11;1.83;;;1.20;;
37051;SDS011;22964;52.272;13.356;2022-09-20T19:54:38;1.80;;;1.20;;
37051;SDS011;22964;52.272;13.356;2022-09-20T19:57:06;2.53;;;0.95;;
37051;SDS011;22964;52.272;13.356;2022-09-20T19:59:39;1.80;;;1.10;;
37051;SDS011;22964;52.272;13.356;2022-09-20T20:02:05;1.63;;;1.20;;
37051;SDS011;22964;52.272;13.356;2022-09-20T20:04:33;1.83;;;1.10;;
37051;SDS011;22964;52.272;13.356;2022-09-20T20:07:21;1.88;;;1.33;;
37051;SDS011;22964;52.272;13.356;2022-09-20T20:10:01;2.38;;;1.58;;
37051;SDS011;22964;52.272;13.356;2022-09-20T20:12:37;2.10;;;1.40;;
37051;SDS011;22964;52.272;13.356;2022-09-20T20:17:43;3.20;;;1.40;;